Time;durP1;ratioP1;P1;durP2;ratioP2;P2;SDS_P1;SDS_P2;PMS_P1;PMS_P2;Temp;Humidity;BMP_temperature;BMP_pressure;BME280_temperature;BME280_humidity;BME280_pressure;Samples;Min_cycle;Max_cycle;Signal;HPM_P1;HPM_P2
2021/12/21 00:01:02;;;;;;;5.65;5.05;;;6.10;99.90;;;;;;5090646;28;20233;-62
2021/12/21 00:03:29;;;;;;;9.90;6.68;;;6.10;99.90;;;;;;5091598;28;20230;-62
2021/12/21 00:05:56;;;;;;;7.65;6.05;;;6.10;99.90;;;;;;5091701;28;20557;-63
2021/12/21 00:08:23;;;;;;;5.28;4.78;;;6.10;99.90;;;;;;5091833;28;20241;-64
2021/12/21 00:10:50;;;;;;;5.80;5.10;;;6.10;99.90;;;;;;5091341;28;20223;-64
2021/12/21 00:13:41;;;;;;;5.47;4.95;;;6.20;99.90;;;;;;5083470;28;20237;-62
2021/12/21 00:16:18;;;;;;;6.00;3.90;;;6.20;99.90;;;;;;5091939;28;20684;-62
2021/12/21 00:19:02;;;;;;;5.75;4.57;;;6.20;99.90;;;;;;5091709;28;20284;-63
2021/12/21 00:21:36;;;;;;;5.90;3.72;;;6.20;99.90;;;;;;5084111;28;20241;-62
2021/12/21 00:24:11;;;;;;;4.47;3.90;;;6.20;99.90;;;;;;5092175;28;20223;-62
2021/12/21 00:26:38;;;;;;;6.55;3.85;;;6.20;99.90;;;;;;5080772;28;20215;-62
2021/12/21 00:29:05;;;;;;;4.43;4.03;;;6.20;99.90;;;;;;5092448;28;20230;-62
2021/12/21 00:31:36;;;;;;;4.88;4.38;;;6.20;99.90;;;;;;5091487;28;20234;-62
2021/12/21 00:34:05;;;;;;;4.80;3.30;;;6.20;99.90;;;;;;5092272;28;20234;-63
2021/12/21 00:36:33;;;;;;;4.57;4.18;;;6.20;99.90;;;;;;5091414;28;20234;-64
2021/12/21 00:39:06;;;;;;;4.22;3.92;;;6.20;99.90;;;;;;5091953;28;20763;-63
2021/12/21 00:41:33;;;;;;;5.50;3.95;;;6.20;99.90;;;;;;5091620;28;20681;-64
2021/12/21 00:44:00;;;;;;;4.97;4.05;;;6.20;99.90;;;;;;5092221;28;20219;-63
2021/12/21 00:46:27;;;;;;;6.22;4.50;;;6.20;99.90;;;;;;5091600;28;20242;-63
2021/12/21 00:49:01;;;;;;;4.68;3.35;;;6.20;99.90;;;;;;5091790;28;20231;-64
2021/12/21 00:51:29;;;;;;;4.40;4.00;;;6.20;99.90;;;;;;5084161;28;20242;-64
2021/12/21 00:53:56;;;;;;;5.10;4.63;;;6.20;99.90;;;;;;5091791;28;20223;-63
2021/12/21 00:56:23;;;;;;;6.82;4.35;;;6.20;99.90;;;;;;5091429;28;20624;-63
2021/12/21 00:58:50;;;;;;;5.20;4.13;;;6.20;99.90;;;;;;5091953;28;20227;-64
2021/12/21 01:01:17;;;;;;;6.30;5.00;;;6.20;99.90;;;;;;5091233;28;20231;-63
2021/12/21 01:03:48;;;;;;;4.78;4.10;;;6.20;99.90;;;;;;5091696;28;20687;-64
2021/12/21 01:06:23;;;;;;;5.85;4.63;;;6.10;99.90;;;;;;5091982;28;20230;-63
2021/12/21 01:09:05;;;;;;;4.82;4.32;;;6.10;99.90;;;;;;5091515;28;20299;-64
2021/12/21 01:11:35;;;;;;;6.88;4.40;;;6.10;99.90;;;;;;5091204;28;20220;-64
2021/12/21 01:14:14;;;;;;;5.57;5.07;;;6.10;99.90;;;;;;5091768;28;20219;-63
2021/12/21 01:16:47;;;;;;;7.47;5.63;;;6.10;99.90;;;;;;5090997;28;20288;-64
2021/12/21 01:19:19;;;;;;;8.85;4.50;;;6.10;99.90;;;;;;5087674;28;20753;-62
2021/12/21 01:22:00;;;;;;;5.53;4.88;;;6.10;99.90;;;;;;5090871;28;20261;-62
2021/12/21 01:24:51;;;;;;;5.28;4.35;;;6.10;99.90;;;;;;5091302;28;20230;-63
2021/12/21 01:27:28;;;;;;;7.75;5.15;;;6.10;99.90;;;;;;5077974;28;20677;-62
2021/12/21 01:30:05;;;;;;;7.15;4.30;;;6.10;99.90;;;;;;5091122;28;20482;-62
2021/12/21 01:32:52;;;;;;;8.35;4.70;;;6.10;99.90;;;;;;5091285;28;20256;-62
2021/12/21 01:35:26;;;;;;;4.40;4.00;;;6.10;99.90;;;;;;5091165;28;20249;-62
2021/12/21 01:38:00;;;;;;;7.00;4.53;;;6.10;99.90;;;;;;5091716;28;20273;-63
2021/12/21 01:40:41;;;;;;;6.57;5.03;;;6.10;99.90;;;;;;5095163;28;20231;-63
2021/12/21 01:43:16;;;;;;;6.50;4.90;;;6.10;99.90;;;;;;5094759;28;20264;-63
2021/12/21 01:51:14;;;;;;;7.45;4.85;;;6.00;99.90;;;;;;5074073;28;20299;-63
2021/12/21 01:53:43;;;;;;;7.10;5.30;;;6.00;99.90;;;;;;5084842;28;20226;-63
2021/12/21 01:56:12;;;;;;;7.30;4.53;;;6.00;99.90;;;;;;5088178;28;20227;-63
2021/12/21 01:58:41;;;;;;;5.32;3.83;;;6.00;99.90;;;;;;5080667;28;20223;-63
2021/12/21 02:01:11;;;;;;;4.82;4.32;;;6.00;99.90;;;;;;5087816;28;20232;-63
2021/12/21 02:03:38;;;;;;;7.25;4.85;;;6.00;99.90;;;;;;5076704;28;20222;-63
2021/12/21 02:06:06;;;;;;;6.70;5.28;;;6.00;99.90;;;;;;5081202;28;20223;-63
2021/12/21 02:08:33;;;;;;;7.88;5.07;;;6.10;99.90;;;;;;5081889;28;20219;-63
2021/12/21 02:11:04;;;;;;;6.00;5.13;;;6.10;99.90;;;;;;5087748;28;20246;-62
2021/12/21 02:13:36;;;;;;;5.63;4.00;;;6.00;99.90;;;;;;5087534;28;20226;-62
2021/12/21 02:16:03;;;;;;;6.95;5.68;;;6.00;99.90;;;;;;5069413;28;20227;-62
2021/12/21 02:18:34;;;;;;;11.68;6.00;;;6.00;99.90;;;;;;5087218;28;20254;-62
2021/12/21 02:21:16;;;;;;;7.88;5.70;;;6.10;99.90;;;;;;5083485;28;20235;-62
2021/12/21 02:23:43;;;;;;;5.45;4.95;;;6.10;99.90;;;;;;5079943;28;20666;-62
2021/12/21 02:26:22;;;;;;;6.60;5.60;;;6.00;99.90;;;;;;5075602;28;20274;-62
2021/12/21 02:29:11;;;;;;;6.95;5.93;;;6.00;99.90;;;;;;5086558;28;21197;-62
2021/12/21 02:31:43;;;;;;;8.18;6.32;;;6.00;99.90;;;;;;5087160;28;20224;-62
2021/12/21 02:34:13;;;;;;;7.57;6.22;;;6.00;99.90;;;;;;5084232;28;20235;-62
2021/12/21 02:36:45;;;;;;;9.55;5.53;;;6.00;99.90;;;;;;5071750;28;20606;-65
2021/12/21 02:39:13;;;;;;;9.40;6.68;;;6.00;99.90;;;;;;5081960;28;20697;-62
2021/12/21 02:41:40;;;;;;;5.93;5.28;;;6.10;99.90;;;;;;5085027;28;20222;-62
2021/12/21 02:44:08;;;;;;;8.80;5.70;;;6.10;99.90;;;;;;5081420;28;20224;-62
2021/12/21 02:46:38;;;;;;;8.30;5.68;;;6.10;99.90;;;;;;5086902;28;20237;-62
2021/12/21 02:49:05;;;;;;;7.05;6.13;;;6.10;99.90;;;;;;5084945;28;20604;-62
2021/12/21 02:51:32;;;;;;;12.18;7.13;;;6.10;99.90;;;;;;5087823;28;20564;-61
2021/12/21 02:54:00;;;;;;;9.68;7.03;;;6.00;99.90;;;;;;5085810;28;20557;-62
2021/12/21 02:56:27;;;;;;;8.43;6.18;;;6.10;99.90;;;;;;5092601;28;20215;-62
2021/12/21 02:58:54;;;;;;;10.55;6.28;;;6.10;99.90;;;;;;5092485;28;20712;-63
2021/12/21 03:01:21;;;;;;;10.65;7.68;;;6.10;99.90;;;;;;5091421;28;20223;-63
2021/12/21 03:03:48;;;;;;;9.95;7.45;;;6.00;99.90;;;;;;5092434;28;20294;-63
2021/12/21 03:06:38;;;;;;;8.65;6.85;;;6.00;99.90;;;;;;5093563;28;20222;-62
2021/12/21 03:09:13;;;;;;;9.60;8.40;;;6.00;99.90;;;;;;5092973;28;20606;-62
2021/12/21 03:11:50;;;;;;;8.30;7.28;;;5.90;99.90;;;;;;5092897;28;20913;-63
2021/12/21 03:14:17;;;;;;;8.63;6.97;;;5.90;99.90;;;;;;5091953;28;20223;-63
2021/12/21 03:16:43;;;;;;;9.35;6.00;;;5.90;99.90;;;;;;5092693;28;20227;-62
2021/12/21 03:19:12;;;;;;;9.95;6.90;;;5.90;99.90;;;;;;5088292;28;20223;-62
2021/12/21 03:21:39;;;;;;;15.85;8.75;;;5.90;99.90;;;;;;5084700;28;20223;-62
2021/12/21 03:24:09;;;;;;;8.38;6.32;;;5.90;99.90;;;;;;5092174;28;20291;-62
2021/12/21 03:26:36;;;;;;;12.93;7.65;;;5.90;99.90;;;;;;5090703;28;20231;-62
2021/12/21 03:29:04;;;;;;;11.07;8.13;;;5.90;99.90;;;;;;5092623;28;20227;-62
2021/12/21 03:31:31;;;;;;;11.23;7.05;;;5.90;99.90;;;;;;5092487;28;20231;-61
2021/12/21 03:33:58;;;;;;;10.55;7.63;;;5.90;99.90;;;;;;5093186;28;20584;-62
2021/12/21 03:36:25;;;;;;;10.70;7.72;;;5.90;99.90;;;;;;5092526;28;20564;-61
2021/12/21 03:39:02;;;;;;;8.95;7.72;;;5.90;99.90;;;;;;5092975;28;20690;-62
2021/12/21 03:41:30;;;;;;;12.63;9.45;;;5.90;99.90;;;;;;5091784;28;20230;-62
2021/12/21 03:44:00;;;;;;;11.52;8.52;;;5.80;99.90;;;;;;5092761;28;20695;-62
2021/12/21 03:46:27;;;;;;;12.32;7.90;;;5.80;99.90;;;;;;5092406;28;20250;-62
2021/12/21 03:48:54;;;;;;;8.63;7.78;;;5.80;99.90;;;;;;5092460;28;20253;-62
2021/12/21 03:51:22;;;;;;;14.65;9.60;;;5.80;99.90;;;;;;5081156;28;20231;-62
2021/12/21 03:53:50;;;;;;;12.48;9.38;;;5.80;99.90;;;;;;5072746;28;20228;-62
2021/12/21 03:56:38;;;;;;;11.45;8.45;;;5.80;99.90;;;;;;5071997;28;20230;-63
2021/12/21 03:59:07;;;;;;;10.32;8.27;;;5.80;99.90;;;;;;5072520;28;20223;-63
2021/12/21 04:01:34;;;;;;;11.73;7.95;;;5.80;99.90;;;;;;5072299;28;20630;-63
2021/12/21 04:04:01;;;;;;;9.90;8.85;;;5.80;99.90;;;;;;5072408;28;20250;-63
2021/12/21 04:06:28;;;;;;;16.10;9.75;;;5.80;99.90;;;;;;5072532;28;20220;-62
2021/12/21 04:08:54;;;;;;;17.58;11.05;;;5.80;99.90;;;;;;5072303;28;20222;-62
2021/12/21 04:11:21;;;;;;;12.10;8.82;;;5.80;99.90;;;;;;5072049;28;20228;-63
2021/12/21 04:13:48;;;;;;;12.02;8.10;;;5.70;99.90;;;;;;5072167;28;20238;-63
2021/12/21 04:16:16;;;;;;;12.63;8.57;;;5.80;99.90;;;;;;5071697;28;20318;-62
2021/12/21 04:18:43;;;;;;;12.13;9.02;;;5.80;99.90;;;;;;5072508;28;20242;-63
2021/12/21 04:21:13;;;;;;;15.95;9.13;;;5.80;99.90;;;;;;5091713;28;20227;-63
2021/12/21 04:23:40;;;;;;;10.88;8.70;;;5.80;99.90;;;;;;5092394;28;20215;-63
2021/12/21 04:26:07;;;;;;;9.95;9.05;;;5.80;99.90;;;;;;5092006;28;20238;-62
2021/12/21 04:28:34;;;;;;;11.07;9.23;;;5.80;99.90;;;;;;5092291;28;20723;-63
2021/12/21 04:31:02;;;;;;;12.70;9.43;;;5.70;99.90;;;;;;5091876;28;20230;-62
2021/12/21 04:33:30;;;;;;;14.95;10.80;;;5.70;99.90;;;;;;5092220;28;20233;-63
2021/12/21 04:35:57;;;;;;;16.58;13.13;;;5.80;99.90;;;;;;5092285;28;20699;-63
2021/12/21 04:38:28;;;;;;;11.18;9.98;;;5.80;99.90;;;;;;5091878;28;20223;-62
2021/12/21 04:41:00;;;;;;;18.63;14.82;;;5.80;99.90;;;;;;5092324;28;20258;-63
2021/12/21 04:43:27;;;;;;;11.90;10.57;;;5.80;99.90;;;;;;5091907;28;20666;-63
2021/12/21 04:45:54;;;;;;;14.95;11.95;;;5.80;99.90;;;;;;5092443;28;20553;-62
2021/12/21 04:48:21;;;;;;;19.85;13.50;;;5.80;99.90;;;;;;5091734;28;20214;-63
2021/12/21 04:50:50;;;;;;;11.00;9.80;;;5.80;99.90;;;;;;5092301;28;20597;-63
2021/12/21 04:53:17;;;;;;;18.95;10.35;;;5.80;99.90;;;;;;5091443;28;20234;-63
2021/12/21 04:55:44;;;;;;;12.23;9.45;;;5.80;99.90;;;;;;5092328;28;20229;-62
2021/12/21 04:58:11;;;;;;;24.40;15.48;;;5.80;99.90;;;;;;5091741;28;20249;-63
2021/12/21 05:00:39;;;;;;;13.93;10.82;;;5.70;99.90;;;;;;5092289;28;20223;-63
2021/12/21 05:03:06;;;;;;;16.38;12.30;;;5.70;99.90;;;;;;5091712;28;20595;-63
2021/12/21 05:05:34;;;;;;;13.45;11.10;;;5.80;99.90;;;;;;5091952;28;20699;-63
2021/12/21 05:08:10;;;;;;;17.08;11.25;;;5.80;99.90;;;;;;5092399;28;20219;-63
2021/12/21 05:10:45;;;;;;;16.98;10.77;;;5.80;99.90;;;;;;5091849;28;20235;-62
2021/12/21 05:13:13;;;;;;;16.85;12.55;;;5.80;99.90;;;;;;5093288;28;20233;-63
2021/12/21 05:15:39;;;;;;;13.13;10.55;;;5.80;99.90;;;;;;5095947;28;20238;-63
2021/12/21 05:18:07;;;;;;;17.85;11.57;;;5.80;99.90;;;;;;5095926;28;20237;-62
2021/12/21 05:20:34;;;;;;;19.33;12.25;;;5.80;99.90;;;;;;5095448;28;20640;-63
2021/12/21 05:23:02;;;;;;;14.18;11.73;;;5.80;99.90;;;;;;5095792;28;20223;-63
2021/12/21 05:25:29;;;;;;;15.70;11.45;;;5.80;99.90;;;;;;5095353;28;20580;-62
2021/12/21 05:27:56;;;;;;;15.32;11.50;;;5.80;99.90;;;;;;5095824;28;20226;-62
2021/12/21 05:30:23;;;;;;;15.95;13.20;;;5.80;99.90;;;;;;5095099;28;20709;-62
2021/12/21 05:32:50;;;;;;;17.75;13.60;;;5.70;99.90;;;;;;5095686;28;20239;-62
2021/12/21 05:35:18;;;;;;;13.63;11.10;;;5.80;99.90;;;;;;5095068;28;20234;-63
2021/12/21 05:37:47;;;;;;;17.75;11.82;;;5.80;99.90;;;;;;5095545;28;20300;-63
2021/12/21 05:40:17;;;;;;;16.95;11.93;;;5.80;99.90;;;;;;5095602;28;20235;-62
2021/12/21 05:42:46;;;;;;;15.50;11.57;;;5.70;99.90;;;;;;5095199;28;20216;-62
2021/12/21 05:45:15;;;;;;;16.38;11.80;;;5.80;99.90;;;;;;5095299;28;20592;-63
2021/12/21 05:47:43;;;;;;;16.05;10.43;;;5.80;99.90;;;;;;5094870;28;20231;-63
2021/12/21 05:50:15;;;;;;;19.02;13.13;;;5.80;99.90;;;;;;5095153;28;20567;-62
2021/12/21 05:52:42;;;;;;;15.13;12.18;;;5.80;99.90;;;;;;5094801;28;20728;-63
2021/12/21 05:55:09;;;;;;;14.05;10.73;;;5.80;99.90;;;;;;5095107;28;20226;-62
2021/12/21 05:57:37;;;;;;;16.50;11.43;;;5.80;99.90;;;;;;5094711;28;20321;-62
2021/12/21 06:00:05;;;;;;;10.25;9.20;;;5.80;99.90;;;;;;5094863;28;20698;-63
2021/12/21 06:02:32;;;;;;;15.85;9.93;;;5.80;99.90;;;;;;5094696;28;20227;-62
2021/12/21 06:04:59;;;;;;;12.10;9.82;;;5.80;99.90;;;;;;5094794;28;20230;-61
2021/12/21 06:07:26;;;;;;;12.40;10.55;;;5.80;99.90;;;;;;5094444;28;20589;-62
2021/12/21 06:09:53;;;;;;;15.80;10.52;;;5.70;99.90;;;;;;5094912;28;20254;-62
2021/12/21 06:12:35;;;;;;;13.15;10.50;;;5.70;99.90;;;;;;5094895;28;20306;-62
2021/12/21 06:15:25;;;;;;;16.45;10.75;;;5.70;99.90;;;;;;5095122;28;20605;-62
2021/12/21 06:26:09;;;;;;;9.57;8.68;;;5.70;99.90;;;;;;5082812;28;20226;-62
2021/12/21 06:28:37;;;;;;;15.07;11.02;;;5.70;99.90;;;;;;5094777;28;20736;-62
2021/12/21 06:31:05;;;;;;;12.02;8.75;;;5.70;99.90;;;;;;5094263;28;20237;-62
2021/12/21 06:33:32;;;;;;;12.70;9.73;;;5.70;99.90;;;;;;5094235;28;20233;-62
2021/12/21 06:36:00;;;;;;;16.77;9.73;;;5.70;99.90;;;;;;5094696;28;20703;-62
2021/12/21 06:38:27;;;;;;;13.32;10.02;;;5.70;99.90;;;;;;5093744;28;20226;-62
2021/12/21 06:40:54;;;;;;;12.70;9.48;;;5.70;99.90;;;;;;5094177;28;20224;-61
2021/12/21 06:43:22;;;;;;;15.18;10.20;;;5.70;99.90;;;;;;5093948;28;20237;-62
2021/12/21 06:45:55;;;;;;;10.75;8.90;;;5.70;99.90;;;;;;5094231;28;20228;-62
2021/12/21 06:51:22;;;;;;;11.85;9.00;;;5.80;99.90;;;;;;5094043;28;20597;-62
2021/12/21 06:53:51;;;;;;;12.90;8.48;;;5.80;99.90;;;;;;5094418;28;20563;-63
2021/12/21 06:56:19;;;;;;;14.10;10.18;;;5.80;99.90;;;;;;5093872;28;21198;-63
2021/12/21 06:58:46;;;;;;;9.75;8.73;;;5.80;99.90;;;;;;5093947;28;20442;-62
2021/12/21 07:01:14;;;;;;;9.75;8.75;;;5.80;99.90;;;;;;5093111;28;20233;-63
2021/12/21 07:03:44;;;;;;;13.25;9.35;;;5.80;99.90;;;;;;5094254;28;20281;-63
2021/12/21 07:06:12;;;;;;;9.38;7.93;;;5.80;99.90;;;;;;5093200;28;20229;-62
2021/12/21 07:08:46;;;;;;;13.82;9.75;;;5.80;99.90;;;;;;5093592;28;20249;-62
2021/12/21 07:11:19;;;;;;;13.52;10.10;;;5.80;99.90;;;;;;5093276;28;20239;-62
2021/12/21 07:19:17;;;;;;;11.32;8.68;;;5.80;99.90;;;;;;5093802;28;20729;-64
2021/12/21 07:21:44;;;;;;;10.25;8.88;;;5.80;99.90;;;;;;5093245;28;20979;-62
2021/12/21 07:24:10;;;;;;;13.07;9.05;;;5.80;99.90;;;;;;5093617;28;20716;-61
2021/12/21 07:26:37;;;;;;;10.48;8.75;;;5.80;99.90;;;;;;5093110;28;20227;-62
2021/12/21 07:29:05;;;;;;;12.38;8.07;;;5.80;99.90;;;;;;5093090;28;20222;-62
2021/12/21 07:31:32;;;;;;;8.68;7.78;;;5.90;99.90;;;;;;5092992;28;20218;-62
2021/12/21 07:33:59;;;;;;;10.60;9.25;;;5.90;99.90;;;;;;5093322;28;20219;-62
2021/12/21 07:36:30;;;;;;;12.10;8.52;;;5.90;99.90;;;;;;5092370;28;20659;-62
2021/12/21 07:38:57;;;;;;;20.20;13.60;;;5.90;99.90;;;;;;5093250;28;20627;-62
2021/12/21 07:41:24;;;;;;;13.48;11.82;;;5.90;99.90;;;;;;5092687;28;20231;-62
2021/12/21 07:43:51;;;;;;;19.52;15.80;;;5.90;99.90;;;;;;5093175;28;20220;-62
2021/12/21 07:46:17;;;;;;;21.80;19.45;;;6.00;99.90;;;;;;5093169;28;20227;-62
2021/12/21 07:48:45;;;;;;;19.50;17.35;;;5.90;99.90;;;;;;5092371;28;20231;-61
2021/12/21 07:51:12;;;;;;;20.30;14.30;;;5.90;99.90;;;;;;5092646;28;20235;-61
2021/12/21 07:53:41;;;;;;;14.25;11.63;;;5.90;99.90;;;;;;5092570;28;20230;-61
2021/12/21 07:56:09;;;;;;;15.80;10.27;;;5.90;99.90;;;;;;5092828;28;20289;-62
2021/12/21 07:58:36;;;;;;;11.10;9.82;;;5.90;99.90;;;;;;5092353;28;20237;-62
2021/12/21 08:01:06;;;;;;;11.40;10.23;;;5.90;99.90;;;;;;5092764;28;20231;-62
2021/12/21 08:03:34;;;;;;;9.82;8.75;;;5.80;99.90;;;;;;5092298;28;20230;-62
2021/12/21 08:06:02;;;;;;;10.95;9.38;;;5.80;99.90;;;;;;5092759;28;20235;-62
2021/12/21 08:08:30;;;;;;;13.77;9.77;;;5.80;99.90;;;;;;5092212;28;20222;-63
2021/12/21 08:11:12;;;;;;;11.15;9.77;;;5.80;99.90;;;;;;5092691;28;20223;-63
2021/12/21 08:13:41;;;;;;;15.13;11.00;;;5.80;99.90;;;;;;5092153;28;20321;-62
2021/12/21 08:16:09;;;;;;;16.50;11.07;;;5.90;99.90;;;;;;5092725;28;20322;-62
2021/12/21 08:18:36;;;;;;;13.45;9.45;;;5.90;99.90;;;;;;5092255;28;20222;-62
2021/12/21 08:21:03;;;;;;;13.02;8.80;;;5.90;99.90;;;;;;5092310;28;20230;-62
2021/12/21 08:23:30;;;;;;;12.25;8.80;;;5.90;99.90;;;;;;5092035;28;20222;-62
2021/12/21 08:25:58;;;;;;;11.93;9.18;;;5.90;99.90;;;;;;5092578;28;20250;-62
2021/12/21 08:28:26;;;;;;;11.48;9.40;;;5.90;99.90;;;;;;5091742;28;20223;-62
2021/12/21 08:30:53;;;;;;;12.02;8.93;;;5.80;99.90;;;;;;5092465;28;20238;-63
2021/12/21 08:33:20;;;;;;;14.85;8.80;;;5.80;99.90;;;;;;5092177;28;20237;-63
2021/12/21 08:35:47;;;;;;;11.80;8.98;;;5.80;99.90;;;;;;5092150;28;20215;-63
2021/12/21 08:38:16;;;;;;;12.98;9.38;;;5.80;99.90;;;;;;5092420;28;20217;-62
2021/12/21 08:40:48;;;;;;;10.32;8.65;;;5.80;99.90;;;;;;5091919;28;20227;-63
2021/12/21 08:43:18;;;;;;;11.77;8.82;;;5.80;99.90;;;;;;5092173;28;20305;-62
2021/12/21 08:45:47;;;;;;;10.40;8.10;;;5.80;99.90;;;;;;5091876;28;20251;-62
2021/12/21 08:48:15;;;;;;;10.40;9.35;;;5.80;99.90;;;;;;5093616;28;20569;-63
2021/12/21 08:50:42;;;;;;;14.43;10.32;;;5.80;99.90;;;;;;5095975;28;20234;-62
2021/12/21 08:53:09;;;;;;;16.35;10.82;;;5.90;99.90;;;;;;5096086;28;20222;-62
2021/12/21 08:55:36;;;;;;;12.02;10.10;;;5.90;99.90;;;;;;5095956;28;20234;-62
2021/12/21 08:58:03;;;;;;;13.80;11.00;;;5.90;99.90;;;;;;5096355;28;20218;-62
2021/12/21 09:00:31;;;;;;;19.27;10.13;;;5.90;99.90;;;;;;5095532;28;20253;-63
2021/12/21 09:02:58;;;;;;;17.00;11.57;;;5.90;99.90;;;;;;5096208;28;20228;-63
2021/12/21 09:05:27;;;;;;;16.20;9.98;;;5.90;99.90;;;;;;5095845;28;20225;-63
2021/12/21 09:07:54;;;;;;;12.93;10.52;;;5.90;99.90;;;;;;5095555;28;20268;-63
2021/12/21 09:10:23;;;;;;;13.88;9.60;;;5.90;99.90;;;;;;5095990;28;20222;-62
2021/12/21 09:12:51;;;;;;;12.77;9.32;;;5.90;99.90;;;;;;5095446;28;20317;-63
2021/12/21 09:15:19;;;;;;;11.48;10.00;;;5.90;99.90;;;;;;5095909;28;20228;-63
2021/12/21 09:17:48;;;;;;;14.05;9.93;;;5.90;99.90;;;;;;5095578;28;20234;-62
2021/12/21 09:20:16;;;;;;;16.17;10.45;;;5.90;99.90;;;;;;5095734;28;20238;-62
2021/12/21 09:22:44;;;;;;;14.05;10.48;;;5.90;99.90;;;;;;5095307;28;20216;-63
2021/12/21 09:25:12;;;;;;;14.52;10.95;;;5.80;99.90;;;;;;5095776;28;20219;-63
2021/12/21 09:27:40;;;;;;;16.17;10.25;;;5.90;99.90;;;;;;5095031;28;20240;-63
2021/12/21 09:30:09;;;;;;;14.52;10.80;;;5.90;99.90;;;;;;5095520;28;20238;-63
2021/12/21 09:32:36;;;;;;;14.65;11.27;;;5.80;99.90;;;;;;5095228;28;20222;-62
2021/12/21 09:35:05;;;;;;;17.98;10.77;;;5.80;99.90;;;;;;5095466;28;20242;-63
2021/12/21 09:37:32;;;;;;;12.00;10.25;;;5.80;99.90;;;;;;5094929;28;20229;-61
2021/12/21 09:40:01;;;;;;;16.02;12.07;;;5.90;99.90;;;;;;5095502;28;20237;-63
2021/12/21 09:42:29;;;;;;;14.63;10.63;;;5.90;99.90;;;;;;5095401;28;20232;-62
2021/12/21 09:44:58;;;;;;;22.88;10.07;;;5.80;99.90;;;;;;5094885;28;20221;-63
2021/12/21 09:47:26;;;;;;;15.55;11.23;;;5.80;99.90;;;;;;5095368;28;20222;-64
2021/12/21 09:49:54;;;;;;;16.30;10.50;;;5.80;99.90;;;;;;5094697;28;20238;-64
2021/12/21 09:52:24;;;;;;;14.25;11.18;;;5.80;99.90;;;;;;5095071;28;20230;-62
2021/12/21 09:54:51;;;;;;;16.10;9.13;;;5.70;99.90;;;;;;5094912;28;20223;-62
2021/12/21 09:57:19;;;;;;;12.73;8.80;;;5.80;99.90;;;;;;5095215;28;20574;-62
2021/12/21 09:59:48;;;;;;;13.27;10.35;;;5.80;99.90;;;;;;5094398;28;20234;-62
2021/12/21 10:02:18;;;;;;;17.55;11.68;;;5.80;99.90;;;;;;5095020;28;20230;-63
2021/12/21 10:04:48;;;;;;;14.70;10.75;;;5.80;99.90;;;;;;5094547;28;20215;-63
2021/12/21 10:07:16;;;;;;;16.33;10.27;;;5.80;99.90;;;;;;5094932;28;20223;-62
2021/12/21 10:09:45;;;;;;;20.50;13.00;;;5.90;99.90;;;;;;5094721;28;20230;-63
2021/12/21 10:12:15;;;;;;;17.90;11.25;;;5.90;99.90;;;;;;5094744;28;20253;-64
2021/12/21 10:14:42;;;;;;;17.23;12.93;;;5.90;99.90;;;;;;5094516;28;20219;-64
2021/12/21 10:17:11;;;;;;;15.95;11.93;;;5.90;99.90;;;;;;5094912;28;20229;-63
2021/12/21 10:19:40;;;;;;;16.77;11.88;;;5.90;99.90;;;;;;5094381;28;20732;-64
2021/12/21 10:22:11;;;;;;;19.65;12.43;;;5.90;99.90;;;;;;5094715;28;20623;-63
2021/12/21 10:24:48;;;;;;;14.88;13.07;;;5.90;99.90;;;;;;5094410;28;20222;-63
2021/12/21 10:27:15;;;;;;;19.45;12.68;;;5.90;99.90;;;;;;5094892;28;20223;-62
2021/12/21 10:29:43;;;;;;;19.17;14.13;;;5.90;99.90;;;;;;5093925;28;20328;-63
2021/12/21 10:32:18;;;;;;;13.77;11.27;;;6.00;99.90;;;;;;5094515;28;20213;-63
2021/12/21 10:34:58;;;;;;;15.43;12.00;;;5.90;99.90;;;;;;5094107;28;20230;-63
2021/12/21 10:37:28;;;;;;;19.52;13.20;;;5.90;99.90;;;;;;5094570;28;20211;-63
2021/12/21 10:40:21;;;;;;;13.10;10.98;;;5.90;99.90;;;;;;5093916;28;20715;-63
2021/12/21 10:42:51;;;;;;;14.93;11.02;;;6.00;99.90;;;;;;5093873;28;20234;-65
2021/12/21 10:45:24;;;;;;;15.23;10.88;;;6.00;99.90;;;;;;5094391;28;20215;-62
2021/12/21 10:47:52;;;;;;;13.65;10.38;;;6.00;99.90;;;;;;5093961;28;20673;-63
2021/12/21 10:50:19;;;;;;;11.52;9.63;;;6.00;99.90;;;;;;5094040;28;20264;-63
2021/12/21 10:52:49;;;;;;;15.88;12.55;;;6.00;99.90;;;;;;5093601;28;20234;-63
2021/12/21 10:55:18;;;;;;;11.98;10.15;;;6.00;99.90;;;;;;5094098;28;20677;-64
2021/12/21 10:57:45;;;;;;;12.75;10.05;;;6.00;99.90;;;;;;5093728;28;20222;-63
2021/12/21 11:00:16;;;;;;;16.48;10.77;;;5.90;99.90;;;;;;5093558;28;20223;-62
2021/12/21 11:02:45;;;;;;;40.80;31.33;;;6.00;99.90;;;;;;5093471;28;20215;-63
2021/12/21 11:05:15;;;;;;;22.15;16.33;;;6.00;99.90;;;;;;5093811;28;20222;-63
2021/12/21 11:07:48;;;;;;;18.65;13.25;;;6.00;99.90;;;;;;5093364;28;20230;-63
2021/12/21 11:10:24;;;;;;;12.38;10.52;;;5.90;99.90;;;;;;5092942;28;20230;-62
2021/12/21 11:12:54;;;;;;;19.88;10.88;;;5.90;99.90;;;;;;5093214;28;20230;-62
2021/12/21 11:15:28;;;;;;;12.93;11.02;;;6.00;99.90;;;;;;5093622;28;20226;-63
2021/12/21 11:17:55;;;;;;;17.58;10.25;;;6.00;99.90;;;;;;5093013;28;20229;-63
2021/12/21 11:20:22;;;;;;;15.13;9.45;;;6.00;99.90;;;;;;5093088;28;20227;-62
2021/12/21 11:22:49;;;;;;;12.55;9.15;;;6.00;99.90;;;;;;5092871;28;20685;-63
2021/12/21 11:25:17;;;;;;;10.85;8.40;;;6.00;99.90;;;;;;5093022;28;20230;-63
2021/12/21 11:27:45;;;;;;;12.65;9.18;;;6.00;99.90;;;;;;5092704;28;20226;-62
2021/12/21 11:30:14;;;;;;;17.55;9.30;;;5.90;99.90;;;;;;5093060;28;20696;-63
2021/12/21 11:32:44;;;;;;;11.65;8.93;;;5.90;99.90;;;;;;5092895;28;20215;-63
2021/12/21 11:37:59;;;;;;;14.20;9.40;;;6.00;99.90;;;;;;5092619;28;20677;-64
2021/12/21 11:40:29;;;;;;;17.25;9.95;;;6.00;99.90;;;;;;5092983;28;20224;-62
2021/12/21 11:43:11;;;;;;;11.45;9.15;;;6.00;99.90;;;;;;5092459;28;20223;-62
2021/12/21 11:45:46;;;;;;;11.30;8.88;;;6.00;99.90;;;;;;5092631;28;20229;-63
2021/12/21 11:48:19;;;;;;;11.65;8.85;;;6.00;99.90;;;;;;5092519;28;20217;-62
2021/12/21 11:50:49;;;;;;;14.88;10.40;;;5.90;99.90;;;;;;5092935;28;20235;-62
2021/12/21 11:53:17;;;;;;;14.65;9.82;;;5.90;99.90;;;;;;5092512;28;20226;-62
2021/12/21 11:55:49;;;;;;;10.48;8.70;;;5.90;99.90;;;;;;5092537;28;20219;-62
2021/12/21 11:58:19;;;;;;;14.18;10.45;;;5.90;99.90;;;;;;5092143;28;20233;-63
2021/12/21 12:00:52;;;;;;;11.27;8.73;;;5.90;99.90;;;;;;5092626;28;20227;-63
2021/12/21 12:03:22;;;;;;;14.25;10.02;;;5.90;99.90;;;;;;5092394;28;20233;-63
2021/12/21 12:05:55;;;;;;;14.43;11.07;;;5.90;99.90;;;;;;5092484;28;20238;-64
2021/12/21 12:08:24;;;;;;;12.35;9.68;;;6.00;99.90;;;;;;5092150;28;20983;-63
2021/12/21 12:10:55;;;;;;;13.65;9.30;;;5.90;99.90;;;;;;5092655;28;20223;-63
2021/12/21 12:13:33;;;;;;;9.55;7.45;;;5.90;99.90;;;;;;5092152;28;20659;-63
2021/12/21 12:16:05;;;;;;;10.85;8.88;;;5.90;99.90;;;;;;5092000;28;20226;-63
2021/12/21 12:18:35;;;;;;;11.93;9.38;;;5.90;99.90;;;;;;5092638;28;20567;-63
2021/12/21 12:21:13;;;;;;;17.92;15.43;;;5.80;99.90;;;;;;5091826;28;20559;-63
2021/12/21 12:23:48;;;;;;;11.57;10.07;;;5.90;99.90;;;;;;5091311;28;20566;-63
2021/12/21 12:26:30;;;;;;;19.38;9.48;;;5.90;99.90;;;;;;5091798;28;20222;-63
2021/12/21 12:29:10;;;;;;;11.05;8.60;;;5.90;99.90;;;;;;5091917;28;20227;-63
2021/12/21 12:31:39;;;;;;;12.18;9.18;;;5.90;99.90;;;;;;5092709;28;20219;-63
2021/12/21 12:34:07;;;;;;;8.98;8.07;;;5.90;99.90;;;;;;5092154;28;20968;-63
2021/12/21 12:36:38;;;;;;;16.65;9.02;;;6.00;99.90;;;;;;5092167;28;20233;-63
2021/12/21 12:39:07;;;;;;;10.73;8.45;;;6.00;99.90;;;;;;5091523;28;20226;-63
2021/12/21 12:41:46;;;;;;;10.93;8.82;;;6.00;99.90;;;;;;5092129;28;20566;-63
2021/12/21 12:44:21;;;;;;;12.60;8.57;;;5.90;99.90;;;;;;5091896;28;20219;-63
2021/12/21 12:46:53;;;;;;;9.75;7.88;;;5.90;99.90;;;;;;5091927;28;20236;-64
2021/12/21 12:49:23;;;;;;;10.25;7.50;;;5.90;99.90;;;;;;5091594;28;20795;-64
2021/12/21 12:51:50;;;;;;;10.48;7.65;;;5.90;99.90;;;;;;5092202;28;20223;-63
2021/12/21 12:54:19;;;;;;;10.27;8.60;;;5.80;99.90;;;;;;5091421;28;20226;-63
2021/12/21 12:56:47;;;;;;;7.88;6.63;;;5.80;99.90;;;;;;5091797;28;20227;-62
2021/12/21 12:59:14;;;;;;;10.95;8.80;;;5.80;99.90;;;;;;5091448;28;20230;-64
2021/12/21 13:01:43;;;;;;;11.80;9.38;;;5.80;99.90;;;;;;5092022;28;20568;-64
2021/12/21 13:04:13;;;;;;;12.85;9.43;;;5.80;99.90;;;;;;5091383;28;20230;-63
2021/12/21 13:06:41;;;;;;;10.55;9.05;;;5.90;99.90;;;;;;5092051;28;20725;-62
2021/12/21 13:09:12;;;;;;;12.00;9.57;;;5.90;99.90;;;;;;5091051;28;20223;-62
2021/12/21 13:11:40;;;;;;;14.85;9.60;;;5.80;99.90;;;;;;5091670;28;20230;-62
2021/12/21 13:14:11;;;;;;;13.90;9.40;;;5.90;99.90;;;;;;5091451;28;20229;-63
2021/12/21 13:16:38;;;;;;;13.82;9.40;;;5.80;99.90;;;;;;5092136;28;20215;-63
2021/12/21 13:19:07;;;;;;;14.75;8.07;;;5.80;99.90;;;;;;5091170;28;20310;-63
2021/12/21 13:21:36;;;;;;;11.10;9.55;;;5.80;99.90;;;;;;5091850;28;20243;-63
2021/12/21 13:24:09;;;;;;;10.90;9.18;;;5.80;99.90;;;;;;5091167;28;20237;-63